sensor_id;sensor_type;location;lat;lon;timestamp;P1;durP1;ratioP1;P2;durP2;ratioP2
21647;SDS011;10985;54.182;7.890;2022-10-31T00:02:21;20.50;;;5.90;;
21647;SDS011;10985;54.182;7.890;2022-10-31T00:04:46;14.50;;;5.50;;
21647;SDS011;10985;54.182;7.890;2022-10-31T00:07:12;19.38;;;5.63;;
21647;SDS011;10985;54.182;7.890;2022-10-31T00:09:37;26.08;;;6.15;;
21647;SDS011;10985;54.182;7.890;2022-10-31T00:12:03;20.63;;;6.35;;
21647;SDS011;10985;54.182;7.890;2022-10-31T00:14:28;24.63;;;6.43;;
21647;SDS011;10985;54.182;7.890;2022-10-31T00:16:54;17.45;;;6.80;;
21647;SDS011;10985;54.182;7.890;2022-10-31T00:19:19;18.33;;;6.82;;
21647;SDS011;10985;54.182;7.890;2022-10-31T00:21:45;19.15;;;7.30;;
21647;SDS011;10985;54.182;7.890;2022-10-31T00:24:10;20.00;;;7.13;;
21647;SDS011;10985;54.182;7.890;2022-10-31T00:26:36;25.30;;;7.60;;
21647;SDS011;10985;54.182;7.890;2022-10-31T00:29:01;24.98;;;7.75;;
21647;SDS011;10985;54.182;7.890;2022-10-31T00:31:27;23.33;;;7.65;;
21647;SDS011;10985;54.182;7.890;2022-10-31T00:33:53;13.35;;;6.53;;
21647;SDS011;10985;54.182;7.890;2022-10-31T00:36:19;18.48;;;6.00;;
21647;SDS011;10985;54.182;7.890;2022-10-31T00:38:45;15.30;;;5.80;;
21647;SDS011;10985;54.182;7.890;2022-10-31T00:41:12;20.63;;;5.70;;
21647;SDS011;10985;54.182;7.890;2022-10-31T00:43:39;20.85;;;5.80;;
21647;SDS011;10985;54.182;7.890;2022-10-31T00:46:05;15.65;;;5.35;;
21647;SDS011;10985;54.182;7.890;2022-10-31T00:48:31;16.50;;;5.90;;
21647;SDS011;10985;54.182;7.890;2022-10-31T00:50:56;15.15;;;5.32;;
21647;SDS011;10985;54.182;7.890;2022-10-31T00:53:22;16.90;;;5.40;;
21647;SDS011;10985;54.182;7.890;2022-10-31T00:55:47;13.18;;;4.80;;
21647;SDS011;10985;54.182;7.890;2022-10-31T00:58:13;12.32;;;4.55;;
21647;SDS011;10985;54.182;7.890;2022-10-31T01:00:39;12.80;;;4.78;;
21647;SDS011;10985;54.182;7.890;2022-10-31T01:03:04;18.45;;;6.43;;
21647;SDS011;10985;54.182;7.890;2022-10-31T01:05:30;19.60;;;7.18;;
21647;SDS011;10985;54.182;7.890;2022-10-31T01:07:55;15.35;;;7.03;;
21647;SDS011;10985;54.182;7.890;2022-10-31T01:10:21;23.23;;;8.77;;
21647;SDS011;10985;54.182;7.890;2022-10-31T01:12:47;27.75;;;10.20;;
21647;SDS011;10985;54.182;7.890;2022-10-31T01:15:15;31.40;;;12.43;;
21647;SDS011;10985;54.182;7.890;2022-10-31T01:17:43;31.63;;;14.52;;
21647;SDS011;10985;54.182;7.890;2022-10-31T01:20:09;34.63;;;16.48;;
21647;SDS011;10985;54.182;7.890;2022-10-31T01:22:36;34.80;;;17.75;;
21647;SDS011;10985;54.182;7.890;2022-10-31T01:25:02;36.80;;;17.35;;
21647;SDS011;10985;54.182;7.890;2022-10-31T01:27:27;40.17;;;19.63;;
21647;SDS011;10985;54.182;7.890;2022-10-31T01:29:53;47.25;;;20.92;;
21647;SDS011;10985;54.182;7.890;2022-10-31T01:32:18;52.83;;;24.98;;
21647;SDS011;10985;54.182;7.890;2022-10-31T01:34:44;60.75;;;25.98;;
21647;SDS011;10985;54.182;7.890;2022-10-31T01:37:09;55.33;;;24.63;;
21647;SDS011;10985;54.182;7.890;2022-10-31T01:39:35;54.95;;;25.42;;
21647;SDS011;10985;54.182;7.890;2022-10-31T01:42:00;56.03;;;25.95;;
21647;SDS011;10985;54.182;7.890;2022-10-31T01:46:54;44.33;;;21.73;;
21647;SDS011;10985;54.182;7.890;2022-10-31T01:52:12;44.53;;;17.80;;
21647;SDS011;10985;54.182;7.890;2022-10-31T01:54:45;39.63;;;17.00;;
21647;SDS011;10985;54.182;7.890;2022-10-31T01:57:18;32.22;;;15.02;;
21647;SDS011;10985;54.182;7.890;2022-10-31T01:59:47;35.88;;;13.65;;
21647;SDS011;10985;54.182;7.890;2022-10-31T02:02:17;37.60;;;14.27;;
21647;SDS011;10985;54.182;7.890;2022-10-31T02:04:43;36.65;;;16.30;;
21647;SDS011;10985;54.182;7.890;2022-10-31T02:07:15;43.80;;;19.13;;
21647;SDS011;10985;54.182;7.890;2022-10-31T02:09:46;43.88;;;20.92;;
21647;SDS011;10985;54.182;7.890;2022-10-31T02:12:12;39.83;;;17.45;;
21647;SDS011;10985;54.182;7.890;2022-10-31T02:14:38;39.92;;;17.85;;
21647;SDS011;10985;54.182;7.890;2022-10-31T02:17:05;42.30;;;17.98;;
21647;SDS011;10985;54.182;7.890;2022-10-31T02:19:51;48.85;;;19.77;;
21647;SDS011;10985;54.182;7.890;2022-10-31T02:28:25;36.38;;;10.48;;
21647;SDS011;10985;54.182;7.890;2022-10-31T02:31:18;26.65;;;9.02;;
21647;SDS011;10985;54.182;7.890;2022-10-31T02:34:07;31.35;;;7.60;;
21647;SDS011;10985;54.182;7.890;2022-10-31T02:36:42;27.52;;;7.15;;
21647;SDS011;10985;54.182;7.890;2022-10-31T02:39:25;24.85;;;5.57;;
21647;SDS011;10985;54.182;7.890;2022-10-31T02:42:01;34.85;;;6.53;;
21647;SDS011;10985;54.182;7.890;2022-10-31T02:47:17;27.20;;;6.13;;
21647;SDS011;10985;54.182;7.890;2022-10-31T10:30:19;37.83;;;19.88;;
21647;SDS011;10985;54.182;7.890;2022-10-31T10:32:51;37.63;;;19.00;;
21647;SDS011;10985;54.182;7.890;2022-10-31T10:37:57;33.08;;;20.50;;
21647;SDS011;10985;54.182;7.890;2022-10-31T10:40:49;35.50;;;21.40;;
21647;SDS011;10985;54.182;7.890;2022-10-31T10:43:19;33.83;;;20.98;;
21647;SDS011;10985;54.182;7.890;2022-10-31T10:45:50;43.70;;;23.13;;
21647;SDS011;10985;54.182;7.890;2022-10-31T10:51:46;38.95;;;22.65;;
21647;SDS011;10985;54.182;7.890;2022-10-31T10:59:27;37.58;;;22.60;;
21647;SDS011;10985;54.182;7.890;2022-10-31T11:01:54;43.67;;;22.95;;
21647;SDS011;10985;54.182;7.890;2022-10-31T11:04:29;42.58;;;23.48;;
21647;SDS011;10985;54.182;7.890;2022-10-31T11:07:00;43.78;;;23.00;;
21647;SDS011;10985;54.182;7.890;2022-10-31T11:09:31;33.20;;;20.73;;
21647;SDS011;10985;54.182;7.890;2022-10-31T11:11:58;35.15;;;19.13;;
21647;SDS011;10985;54.182;7.890;2022-10-31T11:14:30;29.17;;;17.85;;
21647;SDS011;10985;54.182;7.890;2022-10-31T11:17:06;30.55;;;17.70;;
21647;SDS011;10985;54.182;7.890;2022-10-31T11:19:34;27.80;;;16.00;;
21647;SDS011;10985;54.182;7.890;2022-10-31T11:22:07;26.73;;;15.80;;
21647;SDS011;10985;54.182;7.890;2022-10-31T11:24:40;25.33;;;18.25;;
21647;SDS011;10985;54.182;7.890;2022-10-31T11:27:11;23.55;;;17.10;;
21647;SDS011;10985;54.182;7.890;2022-10-31T11:29:38;28.05;;;18.63;;
21647;SDS011;10985;54.182;7.890;2022-10-31T11:32:03;27.92;;;16.85;;
21647;SDS011;10985;54.182;7.890;2022-10-31T11:34:32;25.08;;;16.00;;
21647;SDS011;10985;54.182;7.890;2022-10-31T11:37:12;28.75;;;17.55;;
21647;SDS011;10985;54.182;7.890;2022-10-31T11:39:45;27.55;;;16.90;;
21647;SDS011;10985;54.182;7.890;2022-10-31T11:42:18;28.95;;;16.75;;
21647;SDS011;10985;54.182;7.890;2022-10-31T11:44:48;30.27;;;18.23;;
21647;SDS011;10985;54.182;7.890;2022-10-31T11:47:16;27.15;;;17.10;;
21647;SDS011;10985;54.182;7.890;2022-10-31T11:49:47;24.55;;;17.02;;
21647;SDS011;10985;54.182;7.890;2022-10-31T11:52:18;22.35;;;15.88;;
21647;SDS011;10985;54.182;7.890;2022-10-31T11:54:54;24.45;;;16.13;;
21647;SDS011;10985;54.182;7.890;2022-10-31T11:57:26;22.77;;;14.60;;
21647;SDS011;10985;54.182;7.890;2022-10-31T12:00:21;25.67;;;15.35;;
21647;SDS011;10985;54.182;7.890;2022-10-31T12:02:49;22.67;;;14.80;;
21647;SDS011;10985;54.182;7.890;2022-10-31T12:05:19;21.95;;;14.25;;
21647;SDS011;10985;54.182;7.890;2022-10-31T12:07:50;18.65;;;14.05;;
21647;SDS011;10985;54.182;7.890;2022-10-31T12:10:15;19.27;;;13.75;;
21647;SDS011;10985;54.182;7.890;2022-10-31T12:12:56;21.77;;;13.85;;
21647;SDS011;10985;54.182;7.890;2022-10-31T12:15:46;19.50;;;14.52;;
21647;SDS011;10985;54.182;7.890;2022-10-31T12:20:53;18.17;;;13.73;;
21647;SDS011;10985;54.182;7.890;2022-10-31T12:23:28;25.80;;;14.10;;
21647;SDS011;10985;54.182;7.890;2022-10-31T12:26:08;17.75;;;14.25;;
21647;SDS011;10985;54.182;7.890;2022-10-31T12:45:58;21.48;;;18.65;;
21647;SDS011;10985;54.182;7.890;2022-10-31T12:51:15;24.65;;;21.42;;
21647;SDS011;10985;54.182;7.890;2022-10-31T12:59:35;29.45;;;24.75;;
21647;SDS011;10985;54.182;7.890;2022-10-31T13:05:11;28.67;;;24.67;;
21647;SDS011;10985;54.182;7.890;2022-10-31T13:07:43;33.42;;;24.05;;
21647;SDS011;10985;54.182;7.890;2022-10-31T13:10:34;27.50;;;22.33;;
21647;SDS011;10985;54.182;7.890;2022-10-31T13:13:17;26.55;;;22.30;;
21647;SDS011;10985;54.182;7.890;2022-10-31T13:16:03;33.00;;;24.45;;
21647;SDS011;10985;54.182;7.890;2022-10-31T13:18:46;28.50;;;22.60;;
21647;SDS011;10985;54.182;7.890;2022-10-31T13:21:59;24.83;;;20.80;;
21647;SDS011;10985;54.182;7.890;2022-10-31T13:24:14;32.00;;;21.20;;
21647;SDS011;10985;54.182;7.890;2022-10-31T13:26:44;28.60;;;22.45;;
21647;SDS011;10985;54.182;7.890;2022-10-31T13:29:18;29.73;;;20.55;;
21647;SDS011;10985;54.182;7.890;2022-10-31T13:31:52;29.73;;;20.60;;
21647;SDS011;10985;54.182;7.890;2022-10-31T13:34:22;30.35;;;21.88;;
21647;SDS011;10985;54.182;7.890;2022-10-31T13:39:34;37.63;;;21.80;;
21647;SDS011;10985;54.182;7.890;2022-10-31T13:42:25;29.92;;;20.27;;
21647;SDS011;10985;54.182;7.890;2022-10-31T13:45:23;24.95;;;17.60;;
21647;SDS011;10985;54.182;7.890;2022-10-31T13:48:00;26.75;;;17.55;;
21647;SDS011;10985;54.182;7.890;2022-10-31T13:50:56;26.35;;;18.90;;
21647;SDS011;10985;54.182;7.890;2022-10-31T13:53:37;27.63;;;20.45;;
21647;SDS011;10985;54.182;7.890;2022-10-31T13:56:09;24.17;;;18.85;;
21647;SDS011;10985;54.182;7.890;2022-10-31T13:58:41;28.88;;;20.45;;
21647;SDS011;10985;54.182;7.890;2022-10-31T14:01:21;28.55;;;20.95;;
21647;SDS011;10985;54.182;7.890;2022-10-31T14:03:55;32.67;;;21.45;;
21647;SDS011;10985;54.182;7.890;2022-10-31T14:06:37;35.67;;;24.08;;
21647;SDS011;10985;54.182;7.890;2022-10-31T14:09:03;32.42;;;22.98;;
21647;SDS011;10985;54.182;7.890;2022-10-31T14:11:29;33.78;;;23.35;;
21647;SDS011;10985;54.182;7.890;2022-10-31T14:13:56;41.90;;;26.20;;
21647;SDS011;10985;54.182;7.890;2022-10-31T14:19:06;36.17;;;25.10;;
21647;SDS011;10985;54.182;7.890;2022-10-31T14:21:42;33.47;;;26.05;;
21647;SDS011;10985;54.182;7.890;2022-10-31T14:24:29;38.30;;;27.20;;
21647;SDS011;10985;54.182;7.890;2022-10-31T14:26:58;39.92;;;26.15;;
21647;SDS011;10985;54.182;7.890;2022-10-31T14:29:31;43.65;;;27.55;;
21647;SDS011;10985;54.182;7.890;2022-10-31T14:40:39;48.03;;;28.48;;
21647;SDS011;10985;54.182;7.890;2022-10-31T14:51:27;70.82;;;36.65;;
21647;SDS011;10985;54.182;7.890;2022-10-31T14:54:00;70.97;;;38.80;;
21647;SDS011;10985;54.182;7.890;2022-10-31T14:56:29;54.28;;;32.50;;
21647;SDS011;10985;54.182;7.890;2022-10-31T14:58:57;56.65;;;31.60;;
21647;SDS011;10985;54.182;7.890;2022-10-31T15:01:33;60.35;;;33.70;;
21647;SDS011;10985;54.182;7.890;2022-10-31T15:04:13;63.20;;;36.72;;
21647;SDS011;10985;54.182;7.890;2022-10-31T15:06:49;57.60;;;33.22;;
21647;SDS011;10985;54.182;7.890;2022-10-31T15:11:55;59.17;;;33.08;;
21647;SDS011;10985;54.182;7.890;2022-10-31T15:14:27;57.70;;;33.50;;
21647;SDS011;10985;54.182;7.890;2022-10-31T15:16:55;63.63;;;36.70;;
21647;SDS011;10985;54.182;7.890;2022-10-31T15:19:23;66.00;;;38.35;;
21647;SDS011;10985;54.182;7.890;2022-10-31T15:21:52;66.00;;;39.13;;
21647;SDS011;10985;54.182;7.890;2022-10-31T15:24:19;68.28;;;40.92;;
21647;SDS011;10985;54.182;7.890;2022-10-31T15:26:48;68.43;;;40.05;;
21647;SDS011;10985;54.182;7.890;2022-10-31T15:29:26;70.40;;;42.67;;
21647;SDS011;10985;54.182;7.890;2022-10-31T15:31:59;64.35;;;38.67;;
21647;SDS011;10985;54.182;7.890;2022-10-31T15:34:34;62.97;;;34.70;;
21647;SDS011;10985;54.182;7.890;2022-10-31T15:37:02;60.20;;;31.98;;
21647;SDS011;10985;54.182;7.890;2022-10-31T15:39:27;50.15;;;28.60;;
21647;SDS011;10985;54.182;7.890;2022-10-31T15:41:56;43.45;;;26.05;;
21647;SDS011;10985;54.182;7.890;2022-10-31T15:44:28;51.75;;;26.45;;
21647;SDS011;10985;54.182;7.890;2022-10-31T15:46:59;50.20;;;26.50;;
21647;SDS011;10985;54.182;7.890;2022-10-31T15:49:32;49.13;;;25.17;;
21647;SDS011;10985;54.182;7.890;2022-10-31T15:52:05;48.85;;;26.70;;
21647;SDS011;10985;54.182;7.890;2022-10-31T15:54:36;45.95;;;24.17;;
21647;SDS011;10985;54.182;7.890;2022-10-31T15:57:13;43.30;;;23.98;;
21647;SDS011;10985;54.182;7.890;2022-10-31T15:59:40;38.15;;;24.15;;
21647;SDS011;10985;54.182;7.890;2022-10-31T16:02:10;42.53;;;23.17;;
21647;SDS011;10985;54.182;7.890;2022-10-31T16:04:37;45.63;;;23.17;;
21647;SDS011;10985;54.182;7.890;2022-10-31T16:07:13;43.05;;;22.05;;
21647;SDS011;10985;54.182;7.890;2022-10-31T16:09:56;44.85;;;23.60;;
21647;SDS011;10985;54.182;7.890;2022-10-31T16:12:36;38.47;;;22.13;;
21647;SDS011;10985;54.182;7.890;2022-10-31T16:15:13;42.03;;;22.35;;
21647;SDS011;10985;54.182;7.890;2022-10-31T16:17:40;44.33;;;23.15;;
21647;SDS011;10985;54.182;7.890;2022-10-31T16:20:20;44.92;;;23.25;;
21647;SDS011;10985;54.182;7.890;2022-10-31T16:22:50;42.50;;;23.85;;
21647;SDS011;10985;54.182;7.890;2022-10-31T16:25:20;43.67;;;24.27;;
21647;SDS011;10985;54.182;7.890;2022-10-31T16:27:54;52.13;;;26.48;;
21647;SDS011;10985;54.182;7.890;2022-10-31T16:30:37;47.03;;;24.20;;
21647;SDS011;10985;54.182;7.890;2022-10-31T16:33:04;49.30;;;22.23;;
21647;SDS011;10985;54.182;7.890;2022-10-31T16:35:51;42.28;;;21.08;;
21647;SDS011;10985;54.182;7.890;2022-10-31T16:38:17;48.80;;;22.38;;
21647;SDS011;10985;54.182;7.890;2022-10-31T16:40:43;38.80;;;20.08;;
21647;SDS011;10985;54.182;7.890;2022-10-31T16:43:13;36.55;;;20.30;;
21647;SDS011;10985;54.182;7.890;2022-10-31T16:45:42;41.58;;;20.65;;
21647;SDS011;10985;54.182;7.890;2022-10-31T16:48:10;35.55;;;19.27;;
21647;SDS011;10985;54.182;7.890;2022-10-31T16:50:39;39.05;;;20.25;;
21647;SDS011;10985;54.182;7.890;2022-10-31T16:53:06;38.78;;;21.20;;
21647;SDS011;10985;54.182;7.890;2022-10-31T16:55:32;38.90;;;20.85;;
21647;SDS011;10985;54.182;7.890;2022-10-31T16:58:00;34.97;;;19.67;;
21647;SDS011;10985;54.182;7.890;2022-10-31T17:00:26;38.08;;;19.85;;
21647;SDS011;10985;54.182;7.890;2022-10-31T17:02:53;30.48;;;19.13;;
21647;SDS011;10985;54.182;7.890;2022-10-31T17:05:24;34.63;;;19.40;;
21647;SDS011;10985;54.182;7.890;2022-10-31T17:07:57;32.67;;;18.27;;
21647;SDS011;10985;54.182;7.890;2022-10-31T17:10:24;32.97;;;19.33;;
21647;SDS011;10985;54.182;7.890;2022-10-31T17:12:50;28.85;;;17.50;;
21647;SDS011;10985;54.182;7.890;2022-10-31T17:15:23;32.28;;;18.45;;
21647;SDS011;10985;54.182;7.890;2022-10-31T17:17:50;30.48;;;18.88;;
21647;SDS011;10985;54.182;7.890;2022-10-31T17:20:29;40.80;;;18.65;;
21647;SDS011;10985;54.182;7.890;2022-10-31T17:22:56;40.42;;;19.27;;
21647;SDS011;10985;54.182;7.890;2022-10-31T17:25:23;36.85;;;18.35;;
21647;SDS011;10985;54.182;7.890;2022-10-31T17:27:53;32.65;;;17.40;;
21647;SDS011;10985;54.182;7.890;2022-10-31T17:30:19;31.50;;;17.95;;
21647;SDS011;10985;54.182;7.890;2022-10-31T17:32:45;27.67;;;17.20;;
21647;SDS011;10985;54.182;7.890;2022-10-31T17:35:12;30.50;;;18.27;;
21647;SDS011;10985;54.182;7.890;2022-10-31T17:37:39;34.60;;;18.13;;
21647;SDS011;10985;54.182;7.890;2022-10-31T17:40:07;32.65;;;18.67;;
21647;SDS011;10985;54.182;7.890;2022-10-31T17:42:33;30.75;;;19.25;;
21647;SDS011;10985;54.182;7.890;2022-10-31T17:44:59;34.70;;;18.33;;
21647;SDS011;10985;54.182;7.890;2022-10-31T17:47:24;34.90;;;18.27;;
21647;SDS011;10985;54.182;7.890;2022-10-31T17:49:50;32.38;;;16.60;;
21647;SDS011;10985;54.182;7.890;2022-10-31T17:52:17;36.72;;;17.23;;
21647;SDS011;10985;54.182;7.890;2022-10-31T17:54:43;36.22;;;19.48;;
21647;SDS011;10985;54.182;7.890;2022-10-31T17:57:08;33.25;;;20.02;;
21647;SDS011;10985;54.182;7.890;2022-10-31T17:59:34;36.80;;;21.42;;
21647;SDS011;10985;54.182;7.890;2022-10-31T18:01:59;43.15;;;22.60;;
21647;SDS011;10985;54.182;7.890;2022-10-31T18:04:26;42.08;;;22.95;;
21647;SDS011;10985;54.182;7.890;2022-10-31T18:06:52;48.28;;;22.75;;
21647;SDS011;10985;54.182;7.890;2022-10-31T18:09:18;48.95;;;22.83;;
21647;SDS011;10985;54.182;7.890;2022-10-31T18:11:43;38.72;;;22.20;;
21647;SDS011;10985;54.182;7.890;2022-10-31T18:14:09;36.85;;;21.30;;
21647;SDS011;10985;54.182;7.890;2022-10-31T18:16:35;45.88;;;24.00;;
21647;SDS011;10985;54.182;7.890;2022-10-31T18:19:00;47.78;;;25.40;;
21647;SDS011;10985;54.182;7.890;2022-10-31T18:21:27;46.13;;;25.73;;
21647;SDS011;10985;54.182;7.890;2022-10-31T18:23:53;45.72;;;24.98;;
21647;SDS011;10985;54.182;7.890;2022-10-31T18:26:20;44.50;;;24.65;;
